createdAt,value
2023-01-26T00:01:50.650Z,98453.88
2023-01-26T00:04:16.978Z,98459.41
2023-01-26T00:06:43.366Z,98456.41
2023-01-26T00:09:09.640Z,98453.13
2023-01-26T00:11:36.137Z,98455.22
2023-01-26T00:14:02.782Z,98463.38
2023-01-26T00:16:29.047Z,98451.19
2023-01-26T00:18:55.255Z,98462.84
2023-01-26T00:21:21.789Z,98450.81
2023-01-26T00:23:48.331Z,98444.09
2023-01-26T00:26:14.787Z,98436.97
2023-01-26T00:28:44.083Z,98425.56
2023-01-26T00:31:10.953Z,98423.16
2023-01-26T00:33:37.247Z,98423.34
2023-01-26T00:36:03.648Z,98421.53
2023-01-26T00:38:30.161Z,98408.47
2023-01-26T00:40:57.105Z,98406.88
2023-01-26T00:43:23.376Z,98412.97
2023-01-26T00:45:49.713Z,98412.13
2023-01-26T00:48:16.117Z,98419.06
2023-01-26T00:50:43.008Z,98417.25
2023-01-26T00:53:10.506Z,98408.25
2023-01-26T00:55:36.761Z,98400.31
2023-01-26T00:58:02.983Z,98400.28
2023-01-26T01:00:29.160Z,98401.13
2023-01-26T01:02:55.622Z,98402.75
2023-01-26T01:05:22.154Z,98402.75
2023-01-26T01:07:48.376Z,98403.53
2023-01-26T01:10:14.569Z,98390.28
2023-01-26T01:12:42.060Z,98400.66
2023-01-26T01:15:08.751Z,98395.16
2023-01-26T01:17:35.318Z,98398.19
2023-01-26T01:20:01.561Z,98396.38
2023-01-26T01:22:27.770Z,98396.16
2023-01-26T01:24:54.697Z,98392.25
2023-01-26T01:27:20.891Z,98394.88
2023-01-26T01:29:47.058Z,98392.81
2023-01-26T01:32:13.260Z,98393.63
2023-01-26T01:34:39.500Z,98400.53
2023-01-26T01:37:06.630Z,98401.13
2023-01-26T01:39:32.866Z,98395.59
2023-01-26T01:41:59.058Z,98398.81
2023-01-26T01:44:25.275Z,98403.06
2023-01-26T01:46:52.730Z,98392.88
2023-01-26T01:49:19.039Z,98390.81
2023-01-26T01:51:45.325Z,98401.97
2023-01-26T01:54:11.623Z,98388.53
2023-01-26T01:56:37.795Z,98383.84
2023-01-26T01:59:04.005Z,98387.66
2023-01-26T02:01:30.186Z,98386.44
2023-01-26T02:03:56.417Z,98373.81
2023-01-26T02:06:22.621Z,98375.19
2023-01-26T02:08:48.983Z,98377.41
2023-01-26T02:11:15.159Z,98378.81
2023-01-26T02:13:41.688Z,98374.31
2023-01-26T02:16:08.814Z,98362.47
2023-01-26T02:18:35.050Z,98365.50
2023-01-26T02:21:01.193Z,98369.53
2023-01-26T02:23:27.982Z,98363.84
2023-01-26T02:25:54.164Z,98360.75
2023-01-26T02:28:20.377Z,98361.34
2023-01-26T02:30:46.649Z,98349.53
2023-01-26T02:33:14.149Z,98356.03
2023-01-26T02:35:40.454Z,98360.06
2023-01-26T02:38:06.813Z,98354.13
2023-01-26T02:40:34.032Z,98350.28
2023-01-26T02:43:00.436Z,98343.72
2023-01-26T02:45:26.596Z,98338.03
2023-01-26T02:47:53.486Z,98335.94
2023-01-26T02:50:20.081Z,98340.78
2023-01-26T02:52:47.000Z,98338.53
2023-01-26T02:55:13.245Z,98332.19
2023-01-26T02:57:39.406Z,98337.03
2023-01-26T03:00:06.318Z,98340.06
2023-01-26T03:02:32.528Z,98329.06
2023-01-26T03:04:59.078Z,98331.25
2023-01-26T03:07:25.471Z,98329.19
2023-01-26T03:09:51.933Z,98336.47
2023-01-26T03:12:18.107Z,98330.75
2023-01-26T03:14:44.280Z,98330.31
2023-01-26T03:17:10.856Z,98329.03
2023-01-26T03:19:37.487Z,98333.88
2023-01-26T03:22:03.718Z,98326.34
2023-01-26T03:24:30.875Z,98324.88
2023-01-26T03:26:57.562Z,98330.56
2023-01-26T03:29:26.733Z,98327.28
2023-01-26T03:31:53.452Z,98322.38
2023-01-26T03:34:19.638Z,98326.03
2023-01-26T03:36:46.685Z,98316.47
2023-01-26T03:39:12.944Z,98314.88
2023-01-26T03:41:39.151Z,98316.88
2023-01-26T03:44:05.352Z,98317.25
2023-01-26T03:46:32.727Z,98315.78
2023-01-26T03:48:59.445Z,98318.19
2023-01-26T03:51:25.703Z,98315.09
2023-01-26T03:53:52.356Z,98308.34
2023-01-26T03:56:18.837Z,98310.56
2023-01-26T03:58:45.030Z,98310.94
2023-01-26T04:01:11.328Z,98310.31
2023-01-26T04:03:37.603Z,98321.22
2023-01-26T04:06:16.150Z,98315.50
2023-01-26T04:08:43.490Z,98315.06
2023-01-26T04:11:09.767Z,98315.44
2023-01-26T04:13:36.104Z,98314.81
2023-01-26T04:16:02.348Z,98316.16
2023-01-26T04:18:28.521Z,98313.91
2023-01-26T04:20:54.682Z,98309.03
2023-01-26T04:23:20.925Z,98306.72
2023-01-26T04:25:47.863Z,98304.47
2023-01-26T04:28:14.038Z,98310.13
2023-01-26T04:30:40.732Z,98308.66
2023-01-26T04:33:06.923Z,98309.88
2023-01-26T04:35:33.279Z,98310.25
2023-01-26T04:37:59.471Z,98307.75
2023-01-26T04:40:25.585Z,98303.69
2023-01-26T04:42:52.406Z,98312.41
2023-01-26T04:45:19.414Z,98312.59
2023-01-26T04:47:45.659Z,98308.50
2023-01-26T04:50:12.438Z,98297.34
2023-01-26T04:52:38.855Z,98296.69
2023-01-26T04:55:07.385Z,98289.81
2023-01-26T04:57:33.985Z,98290.97
2023-01-26T05:00:02.470Z,98291.16
2023-01-26T05:02:28.986Z,98291.53
2023-01-26T05:04:55.786Z,98294.34
2023-01-26T05:07:24.986Z,98288.44
2023-01-26T05:09:51.209Z,98291.28
2023-01-26T05:12:18.072Z,98286.34
2023-01-26T05:14:44.414Z,98292.81
2023-01-26T05:17:11.023Z,98289.34
2023-01-26T05:19:37.408Z,98297.81
2023-01-26T05:22:03.676Z,98288.25
2023-01-26T05:24:33.086Z,98290.25
2023-01-26T05:26:59.996Z,98291.63
2023-01-26T05:29:26.205Z,98285.72
2023-01-26T05:31:53.184Z,98285.09
2023-01-26T05:34:19.401Z,98273.91
2023-01-26T05:36:46.225Z,98275.88
2023-01-26T05:39:12.471Z,98277.88
2023-01-26T05:41:38.670Z,98272.97
2023-01-26T05:44:05.488Z,98267.06
2023-01-26T05:46:31.657Z,98269.88
2023-01-26T05:48:57.953Z,98271.09
2023-01-26T05:51:24.497Z,98272.06
2023-01-26T05:53:51.187Z,98273.09
2023-01-26T05:56:17.525Z,98282.16
2023-01-26T05:58:44.085Z,98281.34
2023-01-26T06:01:10.759Z,98293.88
2023-01-26T06:03:37.474Z,98288.94
2023-01-26T06:06:03.711Z,98294.38
2023-01-26T06:08:29.975Z,98292.13
2023-01-26T06:10:56.328Z,98299.19
2023-01-26T06:13:22.522Z,98305.47
2023-01-26T06:15:48.752Z,98300.56
2023-01-26T06:18:14.949Z,98302.56
2023-01-26T06:20:44.021Z,98304.53
2023-01-26T06:23:10.444Z,98306.34
2023-01-26T06:25:37.058Z,98300.44
2023-01-26T06:28:03.385Z,98309.53
2023-01-26T06:30:30.267Z,98313.97
2023-01-26T06:32:58.864Z,98318.41
2023-01-26T06:35:26.292Z,98307.25
2023-01-26T06:37:52.500Z,98314.50
2023-01-26T06:40:18.692Z,98313.88
2023-01-26T06:42:50.236Z,98321.94
2023-01-26T06:45:16.713Z,98317.84
2023-01-26T06:47:43.551Z,98313.59
2023-01-26T06:50:10.198Z,98310.31
2023-01-26T06:52:37.036Z,98313.13
2023-01-26T06:55:03.297Z,98314.28
2023-01-26T06:57:29.643Z,98311.81
2023-01-26T06:59:55.857Z,98313.81
2023-01-26T07:02:22.146Z,98318.25
2023-01-26T07:04:48.460Z,98313.16
2023-01-26T07:07:14.700Z,98317.09
2023-01-26T07:09:40.923Z,98322.44
2023-01-26T07:12:07.146Z,98320.03
2023-01-26T07:14:33.355Z,98317.41
2023-01-26T07:16:59.539Z,98320.25
2023-01-26T07:19:25.996Z,98315.53
2023-01-26T07:21:52.783Z,98316.41
2023-01-26T07:24:19.023Z,98308.22
2023-01-26T07:26:45.268Z,98317.13
2023-01-26T07:29:11.597Z,98326.81
2023-01-26T07:31:38.587Z,98335.44
2023-01-26T07:34:05.480Z,98330.19
2023-01-26T07:36:31.750Z,98331.63
2023-01-26T07:38:57.928Z,98328.16
2023-01-26T07:41:24.197Z,98328.16
2023-01-26T07:43:50.532Z,98319.56
2023-01-26T07:46:16.763Z,98326.06
2023-01-26T07:48:43.502Z,98324.78
2023-01-26T07:51:10.123Z,98321.84
2023-01-26T07:53:36.546Z,98321.81
2023-01-26T07:56:02.794Z,98320.56
2023-01-26T07:58:29.150Z,98332.75
2023-01-26T08:00:55.330Z,98327.00
2023-01-26T08:03:21.528Z,98321.19
2023-01-26T08:05:47.892Z,98325.66
2023-01-26T08:08:14.329Z,98327.19
2023-01-26T08:10:41.418Z,98330.00
2023-01-26T08:13:07.701Z,98321.53
2023-01-26T08:15:37.031Z,98317.94
2023-01-26T08:18:03.210Z,98316.41
2023-01-26T08:20:29.380Z,98318.78
2023-01-26T08:22:56.757Z,98320.13
2023-01-26T08:25:23.752Z,98320.44
2023-01-26T08:27:49.979Z,98324.22
2023-01-26T08:30:16.170Z,98324.56
2023-01-26T08:32:43.796Z,98324.06
2023-01-26T08:35:10.024Z,98320.28
2023-01-26T08:37:36.234Z,98325.66
2023-01-26T08:40:03.102Z,98320.03
2023-01-26T08:42:29.435Z,98326.69
2023-01-26T08:44:55.635Z,98330.66
2023-01-26T08:47:22.734Z,98326.66
2023-01-26T08:49:48.898Z,98324.72
2023-01-26T08:52:15.579Z,98316.88
2023-01-26T08:54:41.768Z,98310.25
2023-01-26T08:57:08.670Z,98310.06
2023-01-26T08:59:38.627Z,98314.22
2023-01-26T09:02:05.353Z,98307.81
2023-01-26T09:04:31.616Z,98316.63
2023-01-26T09:06:57.822Z,98309.38
2023-01-26T09:09:24.851Z,98310.31
2023-01-26T09:11:51.051Z,98310.53
2023-01-26T09:14:17.239Z,98316.91
2023-01-26T09:16:43.717Z,98311.34
2023-01-26T09:19:10.071Z,98307.66
2023-01-26T09:21:37.286Z,98307.06
2023-01-26T09:24:03.599Z,98302.19
2023-01-26T09:26:29.824Z,98302.63
2023-01-26T09:28:55.998Z,98302.06
2023-01-26T09:31:22.261Z,98307.59
2023-01-26T09:33:49.465Z,98308.88
2023-01-26T09:36:16.148Z,98306.44
2023-01-26T09:38:42.358Z,98305.03
2023-01-26T09:41:08.551Z,98308.16
2023-01-26T09:43:35.484Z,98316.38
2023-01-26T09:46:01.684Z,98314.72
2023-01-26T09:48:28.454Z,98316.84
2023-01-26T09:50:55.122Z,98318.09
2023-01-26T09:53:21.336Z,98321.19
2023-01-26T09:55:47.527Z,98317.13
2023-01-26T09:58:13.714Z,98316.31
2023-01-26T10:00:40.056Z,98310.41
2023-01-26T10:03:06.459Z,98320.03
2023-01-26T10:05:32.652Z,98326.53
2023-01-26T10:07:59.041Z,98320.28
2023-01-26T10:10:25.279Z,98313.38
2023-01-26T10:12:54.817Z,98306.47
2023-01-26T10:15:21.109Z,98307.34
2023-01-26T10:17:47.276Z,98306.81
2023-01-26T10:20:13.569Z,98319.13
2023-01-26T10:22:40.104Z,98310.91
2023-01-26T10:25:06.319Z,98309.63
2023-01-26T10:27:32.627Z,98308.97
2023-01-26T10:29:58.815Z,98313.25
2023-01-26T10:32:25.196Z,98299.78
2023-01-26T10:34:51.386Z,98295.03
2023-01-26T10:37:17.782Z,98285.16
2023-01-26T10:39:44.140Z,98284.34
2023-01-26T10:42:10.448Z,98275.78
2023-01-26T10:44:37.365Z,98275.78
2023-01-26T10:47:04.401Z,98279.25
2023-01-26T10:49:30.649Z,98263.69
2023-01-26T10:51:56.997Z,98273.78
2023-01-26T10:54:23.295Z,98266.72
2023-01-26T10:56:49.628Z,98274.16
2023-01-26T10:59:15.849Z,98271.72
2023-01-26T11:01:42.408Z,98270.66
2023-01-26T11:04:08.692Z,98265.56
2023-01-26T11:06:35.051Z,98267.09
2023-01-26T11:09:01.248Z,98264.09
2023-01-26T11:11:28.455Z,98264.28
2023-01-26T11:13:54.707Z,98260.25
2023-01-26T11:16:21.047Z,98257.25
2023-01-26T11:18:47.268Z,98251.31
2023-01-26T11:21:13.491Z,98254.22
2023-01-26T11:23:39.720Z,98250.50
2023-01-26T11:26:06.441Z,98249.91
2023-01-26T11:28:32.691Z,98238.69
2023-01-26T11:30:58.975Z,98233.38
2023-01-26T11:33:25.420Z,98233.91
2023-01-26T11:35:52.256Z,98228.38
2023-01-26T11:38:18.452Z,98235.91
2023-01-26T11:40:45.530Z,98224.19
2023-01-26T11:43:11.759Z,98226.59
2023-01-26T11:45:38.162Z,98215.75
2023-01-26T11:48:04.383Z,98211.78
2023-01-26T11:50:31.649Z,98206.44
2023-01-26T11:52:57.896Z,98201.09
2023-01-26T11:55:24.099Z,98207.03
2023-01-26T11:57:50.387Z,98201.69
2023-01-26T12:00:29.034Z,98201.94
2023-01-26T12:02:56.924Z,98201.09
2023-01-26T12:05:23.184Z,98199.50
2023-01-26T12:07:49.403Z,98193.59
2023-01-26T12:10:16.729Z,98193.81
2023-01-26T12:12:43.776Z,98195.09
2023-01-26T12:15:11.243Z,98195.56
2023-01-26T12:17:37.829Z,98198.81
2023-01-26T12:20:04.191Z,98183.84
2023-01-26T12:22:32.093Z,98191.31
2023-01-26T12:25:17.964Z,98192.69
2023-01-26T12:27:45.671Z,98183.06
2023-01-26T12:30:11.956Z,98188.91
2023-01-26T12:32:38.663Z,98188.06
2023-01-26T12:35:04.882Z,98196.75
2023-01-26T12:37:31.536Z,98186.16
2023-01-26T12:39:57.937Z,98172.88
2023-01-26T12:42:24.157Z,98173.47
2023-01-26T12:44:50.364Z,98179.13
2023-01-26T12:47:16.552Z,98173.56
2023-01-26T12:49:43.352Z,98152.00
2023-01-26T12:52:10.293Z,98155.34
2023-01-26T12:54:36.731Z,98156.94
2023-01-26T12:57:03.467Z,98155.34
2023-01-26T12:59:48.504Z,98161.63
2023-01-26T13:02:16.223Z,98151.09
2023-01-26T13:04:43.032Z,98159.03
2023-01-26T13:07:10.169Z,98150.22
2023-01-26T13:09:36.514Z,98152.31
2023-01-26T13:12:02.761Z,98153.84
2023-01-26T13:14:28.969Z,98158.03
2023-01-26T13:16:55.831Z,98159.09
2023-01-26T13:19:22.076Z,98157.47
2023-01-26T13:21:48.518Z,98158.53
2023-01-26T13:24:14.902Z,98159.78
2023-01-26T13:26:41.252Z,98163.53
2023-01-26T13:29:07.460Z,98170.13
2023-01-26T13:31:34.087Z,98160.78
2023-01-26T13:34:00.406Z,98164.47
2023-01-26T13:36:26.611Z,98177.22
2023-01-26T13:38:52.859Z,98177.47
2023-01-26T13:41:19.245Z,98173.44
2023-01-26T13:43:45.469Z,98185.16
2023-01-26T13:46:11.848Z,98184.81
2023-01-26T13:48:38.817Z,98176.25
2023-01-26T13:51:05.120Z,98182.63
2023-01-26T13:53:31.507Z,98177.53
2023-01-26T13:55:58.439Z,98169.72
2023-01-26T13:58:27.230Z,98172.06
2023-01-26T14:00:53.487Z,98169.63
2023-01-26T14:03:19.684Z,98169.28
2023-01-26T14:05:45.865Z,98166.28
2023-01-26T14:08:12.031Z,98163.03
2023-01-26T14:10:38.492Z,98166.19
2023-01-26T14:13:04.996Z,98166.41
2023-01-26T14:15:32.100Z,98164.44
2023-01-26T14:17:58.330Z,98161.19
2023-01-26T14:20:24.604Z,98168.63
2023-01-26T14:22:50.791Z,98158.44
2023-01-26T14:25:17.023Z,98164.25
2023-01-26T14:27:43.305Z,98164.72
2023-01-26T14:30:09.876Z,98164.16
2023-01-26T14:32:36.199Z,98161.94
2023-01-26T14:35:02.379Z,98160.31
2023-01-26T14:37:28.649Z,98159.75
2023-01-26T14:39:55.108Z,98161.38
2023-01-26T14:42:21.675Z,98153.03
2023-01-26T14:44:47.974Z,98161.81
2023-01-26T14:47:14.169Z,98165.75
2023-01-26T14:49:40.428Z,98164.13
2023-01-26T14:52:06.629Z,98163.88
2023-01-26T14:54:33.332Z,98166.00
2023-01-26T14:57:00.354Z,98176.22
2023-01-26T14:59:28.033Z,98170.34
2023-01-26T15:01:55.988Z,98182.00
2023-01-26T15:04:22.359Z,98186.41
2023-01-26T15:06:48.581Z,98185.66
2023-01-26T15:09:14.801Z,98181.72
2023-01-26T15:11:41.138Z,98182.28
2023-01-26T15:14:07.407Z,98192.72
2023-01-26T15:16:36.765Z,98198.06
2023-01-26T15:19:03.202Z,98193.22
2023-01-26T15:21:29.693Z,98189.63
2023-01-26T15:23:56.611Z,98194.91
2023-01-26T15:26:23.821Z,98191.88
2023-01-26T15:28:51.023Z,98193.97
2023-01-26T15:31:17.933Z,98183.78
2023-01-26T15:33:44.254Z,98188.56
2023-01-26T15:36:10.835Z,98185.78
2023-01-26T15:38:37.128Z,98181.41
2023-01-26T15:41:03.374Z,98184.78
2023-01-26T15:43:30.417Z,98183.88
2023-01-26T15:45:56.831Z,98178.19
2023-01-26T15:48:23.564Z,98183.44
2023-01-26T15:50:49.792Z,98181.22
2023-01-26T15:53:16.573Z,98193.66
2023-01-26T15:55:42.817Z,98192.50
2023-01-26T15:58:09.139Z,98189.72
2023-01-26T16:00:35.412Z,98184.03
2023-01-26T16:03:03.185Z,98186.38
2023-01-26T16:05:29.421Z,98182.53
2023-01-26T16:07:55.807Z,98183.03
2023-01-26T16:10:23.079Z,98187.19
2023-01-26T16:12:49.257Z,98181.50
2023-01-26T16:15:15.558Z,98188.16
2023-01-26T16:17:41.781Z,98190.22
2023-01-26T16:20:08.018Z,98194.16
2023-01-26T16:22:34.353Z,98198.13
2023-01-26T16:25:00.928Z,98182.94
2023-01-26T16:27:27.121Z,98197.31
2023-01-26T16:29:53.721Z,98195.69
2023-01-26T16:32:20.309Z,98205.31
2023-01-26T16:34:47.050Z,98197.31
2023-01-26T16:37:13.628Z,98195.47
2023-01-26T16:39:40.103Z,98197.06
2023-01-26T16:42:09.379Z,98195.22
2023-01-26T16:44:35.962Z,98191.72
2023-01-26T16:47:02.236Z,98194.41
2023-01-26T16:49:28.584Z,98192.56
2023-01-26T16:51:57.978Z,98190.72
2023-01-26T16:54:24.415Z,98189.06
2023-01-26T16:56:50.701Z,98194.63
2023-01-26T16:59:17.931Z,98193.81
2023-01-26T17:01:44.179Z,98193.03
2023-01-26T17:04:10.464Z,98190.38
2023-01-26T17:06:37.214Z,98190.00
2023-01-26T17:09:03.397Z,98185.72
2023-01-26T17:11:29.773Z,98185.13
2023-01-26T17:13:56.362Z,98195.25
2023-01-26T17:16:22.641Z,98201.38
2023-01-26T17:18:48.848Z,98196.50
2023-01-26T17:21:15.084Z,98199.16
2023-01-26T17:23:41.622Z,98195.91
2023-01-26T17:26:07.946Z,98198.59
2023-01-26T17:28:34.175Z,98195.00
2023-01-26T17:31:01.478Z,98196.25
2023-01-26T17:33:31.451Z,98203.66
2023-01-26T17:35:58.254Z,98197.19
2023-01-26T17:38:24.445Z,98204.56
2023-01-26T17:40:50.770Z,98207.34
2023-01-26T17:43:17.046Z,98199.22
2023-01-26T17:45:43.299Z,98186.66
2023-01-26T17:48:09.506Z,98192.81
2023-01-26T17:50:36.447Z,98195.00
2023-01-26T17:53:03.129Z,98193.75
2023-01-26T17:55:29.530Z,98195.16
2023-01-26T17:57:56.360Z,98191.91
2023-01-26T18:00:22.693Z,98192.34
2023-01-26T18:02:48.887Z,98188.06
2023-01-26T18:05:15.084Z,98187.84
2023-01-26T18:07:41.491Z,98190.41
2023-01-26T18:10:07.789Z,98188.75
2023-01-26T18:12:34.381Z,98185.16
2023-01-26T18:15:00.676Z,98191.78
2023-01-26T18:17:26.920Z,98194.41
2023-01-26T18:19:53.156Z,98194.13
2023-01-26T18:22:20.102Z,98183.63
2023-01-26T18:24:46.407Z,98187.56
2023-01-26T18:27:12.677Z,98193.06
2023-01-26T18:29:39.037Z,98203.09
2023-01-26T18:32:05.811Z,98208.06
2023-01-26T18:34:32.600Z,98207.66
2023-01-26T18:36:58.832Z,98211.59
2023-01-26T18:39:25.863Z,98198.88
2023-01-26T18:41:52.167Z,98207.53
2023-01-26T18:44:18.449Z,98200.41
2023-01-26T18:46:44.737Z,98212.09
2023-01-26T18:49:10.966Z,98209.47
2023-01-26T18:51:37.179Z,98208.97
2023-01-26T18:54:03.614Z,98201.53
2023-01-26T18:56:30.551Z,98206.06
2023-01-26T18:58:56.754Z,98204.47
2023-01-26T19:01:23.018Z,98201.47
2023-01-26T19:03:49.735Z,98201.97
2023-01-26T19:06:15.914Z,98194.91
2023-01-26T19:08:42.749Z,98190.56
2023-01-26T19:11:09.190Z,98186.16
2023-01-26T19:13:37.596Z,98188.19
2023-01-26T19:16:03.814Z,98188.59
2023-01-26T19:18:30.853Z,98192.19
2023-01-26T19:20:57.991Z,98192.13
2023-01-26T19:23:24.385Z,98192.59
2023-01-26T19:25:50.779Z,98194.72
2023-01-26T19:28:17.004Z,98204.81
2023-01-26T19:30:43.413Z,98199.72
2023-01-26T19:33:09.943Z,98201.00
2023-01-26T19:35:36.997Z,98191.88
2023-01-26T19:38:03.216Z,98196.63
2023-01-26T19:40:29.466Z,98198.97
2023-01-26T19:42:55.715Z,98201.31
2023-01-26T19:45:22.197Z,98195.88
2023-01-26T19:47:48.988Z,98195.56
2023-01-26T19:50:15.388Z,98192.81
2023-01-26T19:52:41.595Z,98195.69
2023-01-26T19:55:07.906Z,98195.13
2023-01-26T19:57:34.258Z,98193.34
2023-01-26T20:00:00.996Z,98196.91
2023-01-26T20:02:27.316Z,98196.78
2023-01-26T20:04:54.634Z,98201.50
2023-01-26T20:07:20.831Z,98197.13
2023-01-26T20:09:47.265Z,98210.44
2023-01-26T20:12:14.097Z,98204.47
2023-01-26T20:14:41.136Z,98201.63
2023-01-26T20:17:07.338Z,98205.44
2023-01-26T20:19:33.739Z,98208.13
2023-01-26T20:22:00.868Z,98207.06
2023-01-26T20:24:27.246Z,98201.25
2023-01-26T20:26:53.591Z,98201.56
2023-01-26T20:29:20.789Z,98207.44
2023-01-26T20:31:47.380Z,98204.78
2023-01-26T20:34:13.634Z,98201.31
2023-01-26T20:36:39.821Z,98208.50
2023-01-26T20:39:06.023Z,98205.53
2023-01-26T20:41:32.699Z,98200.91
2023-01-26T20:44:01.448Z,98197.34
2023-01-26T20:46:28.275Z,98191.69
2023-01-26T20:48:54.465Z,98194.03
2023-01-26T20:51:20.679Z,98203.31
2023-01-26T20:53:46.876Z,98199.28
2023-01-26T20:56:13.393Z,98201.41
2023-01-26T20:58:39.600Z,98196.03
2023-01-26T21:01:06.000Z,98206.38
2023-01-26T21:03:32.375Z,98202.31
2023-01-26T21:05:58.679Z,98205.72
2023-01-26T21:08:25.025Z,98191.47
2023-01-26T21:10:51.202Z,98204.25
2023-01-26T21:13:17.824Z,98200.66
2023-01-26T21:15:44.781Z,98199.56
2023-01-26T21:18:11.855Z,98189.00
2023-01-26T21:20:38.104Z,98192.97
2023-01-26T21:23:04.306Z,98194.50
2023-01-26T21:25:30.507Z,98198.69
2023-01-26T21:27:56.756Z,98199.16
2023-01-26T21:30:23.496Z,98202.31
2023-01-26T21:32:49.725Z,98205.47
2023-01-26T21:35:16.089Z,98204.09
2023-01-26T21:37:43.098Z,98212.59
2023-01-26T21:40:09.427Z,98208.28
2023-01-26T21:42:35.883Z,98211.44
2023-01-26T21:45:02.470Z,98210.06
2023-01-26T21:47:28.730Z,98205.19
2023-01-26T21:49:54.956Z,98203.31
2023-01-26T21:52:22.255Z,98204.59
2023-01-26T21:54:48.473Z,98207.50
2023-01-26T21:57:15.396Z,98207.50
2023-01-26T21:59:41.650Z,98198.13
2023-01-26T22:02:07.900Z,98202.66
2023-01-26T22:04:34.138Z,98202.06
2023-01-26T22:07:00.459Z,98192.69
2023-01-26T22:09:27.551Z,98191.88
2023-01-26T22:11:53.798Z,98202.56
2023-01-26T22:14:20.406Z,98194.53
2023-01-26T22:16:46.668Z,98195.59
2023-01-26T22:19:13.135Z,98195.25
2023-01-26T22:21:39.637Z,98187.00
2023-01-26T22:24:06.039Z,98190.66
2023-01-26T22:26:33.008Z,98180.72
2023-01-26T22:28:59.276Z,98186.19
2023-01-26T22:31:25.712Z,98192.78
2023-01-26T22:33:52.537Z,98187.13
2023-01-26T22:36:18.739Z,98190.78
2023-01-26T22:38:44.927Z,98191.56
2023-01-26T22:41:11.357Z,98194.47
2023-01-26T22:43:42.516Z,98190.72
2023-01-26T22:46:09.920Z,98187.78
2023-01-26T22:48:36.708Z,98193.91
2023-01-26T22:51:03.010Z,98194.66
2023-01-26T22:53:29.233Z,98201.34
2023-01-26T22:55:58.380Z,98195.75
2023-01-26T22:58:24.579Z,98199.53
2023-01-26T23:00:50.804Z,98205.34
2023-01-26T23:03:17.004Z,98205.66
2023-01-26T23:05:43.487Z,98204.34
2023-01-26T23:08:09.671Z,98195.03
2023-01-26T23:10:35.956Z,98205.75
2023-01-26T23:13:03.410Z,98202.56
2023-01-26T23:15:29.636Z,98204.69
2023-01-26T23:17:55.843Z,98203.94
2023-01-26T23:20:22.242Z,98202.41
2023-01-26T23:22:48.483Z,98199.59
2023-01-26T23:25:14.688Z,98199.63
2023-01-26T23:27:40.957Z,98204.19
2023-01-26T23:30:07.207Z,98206.91
2023-01-26T23:32:33.417Z,98206.97
2023-01-26T23:35:00.206Z,98204.13
2023-01-26T23:37:27.214Z,98208.44
2023-01-26T23:39:53.449Z,98204.81
2023-01-26T23:42:20.033Z,98202.00
2023-01-26T23:44:46.230Z,98215.34
2023-01-26T23:47:12.484Z,98210.66
2023-01-26T23:49:38.822Z,98213.34
2023-01-26T23:52:06.282Z,98214.81
2023-01-26T23:54:32.485Z,98216.50
2023-01-26T23:56:59.035Z,98217.13
2023-01-26T23:59:26.152Z,98213.25
